Time;durP1;ratioP1;P1;durP2;ratioP2;P2;SDS_P1;SDS_P2;PMS_P1;PMS_P2;Temp;Humidity;BMP_temperature;BMP_pressure;BME280_temperature;BME280_humidity;BME280_pressure;Samples;Min_cycle;Max_cycle;Signal;HPM_P1;HPM_P2
2021/08/14 00:01:16;;;;;;;27.33;14.75;;;;;;;16.46;75.84;100023.97;5055889;28;20473;-92
2021/08/14 00:03:43;;;;;;;28.50;14.68;;;;;;;16.24;75.64;99988.38;5057904;28;20032;-92
2021/08/14 00:06:11;;;;;;;33.10;14.83;;;;;;;16.58;75.30;100043.34;5037061;28;20069;-91
2021/08/14 00:08:37;;;;;;;29.23;14.98;;;;;;;16.38;75.74;100033.88;5052392;28;20044;-92
2021/08/14 00:11:04;;;;;;;33.87;14.93;;;;;;;16.21;75.36;100009.97;5050427;28;20074;-93
2021/08/14 00:13:32;;;;;;;27.92;13.77;;;;;;;16.37;75.65;100057.13;5050213;28;20777;-92
2021/08/14 00:15:58;;;;;;;34.90;13.93;;;;;;;16.12;75.25;100019.44;5049513;28;20031;-93
2021/08/14 00:18:24;;;;;;;28.80;13.37;;;;;;;16.49;75.33;100075.72;5059747;28;20500;-92
2021/08/14 00:20:50;;;;;;;32.50;13.67;;;;;;;16.38;75.48;100063.44;5047819;28;20064;-92
2021/08/14 00:23:16;;;;;;;23.25;13.07;;;;;;;16.45;75.36;100083.84;5026359;28;20512;-92
2021/08/14 00:25:44;;;;;;;28.45;13.65;;;;;;;16.42;75.63;100083.69;5056014;28;20065;-93
2021/08/14 00:28:13;;;;;;;40.08;13.90;;;;;;;16.37;75.81;100078.38;5070439;28;20035;-91
2021/08/14 00:30:40;;;;;;;28.73;12.98;;;;;;;16.42;76.03;100092.81;5052395;28;20388;-92
2021/08/14 00:33:06;;;;;;;;;;;;;;;16.59;76.06;100119.50;5045832;28;20039;-92
2021/08/14 00:35:32;;;;;;;21.57;12.40;;;;;;;16.37;75.97;100089.44;5057803;28;19964;-93
2021/08/14 00:37:59;;;;;;;27.38;12.82;;;;;;;16.11;76.58;100048.97;5047437;28;20039;-91
2021/08/14 00:40:25;;;;;;;34.87;13.20;;;;;;;16.34;76.65;100088.13;5061122;28;20036;-93
2021/08/14 00:42:53;;;;;;;26.42;14.25;;;;;;;16.39;76.34;100100.91;5054229;28;20028;-93
2021/08/14 00:45:19;;;;;;;26.10;12.80;;;;;;;16.27;76.49;100089.81;5049479;28;20045;-91
2021/08/14 00:47:46;;;;;;;31.73;14.97;;;;;;;15.78;76.46;100012.94;5063881;28;20294;-92
2021/08/14 00:50:12;;;;;;;32.58;13.32;;;;;;;16.04;76.35;100065.25;5042448;28;20040;-92
2021/08/14 00:52:39;;;;;;;21.50;12.48;;;;;;;15.96;76.09;100050.34;5043424;28;20040;-95
2021/08/14 00:55:05;;;;;;;28.13;13.50;;;;;;;16.18;76.72;100098.91;5079058;28;20518;-95
2021/08/14 00:57:31;;;;;;;28.52;12.77;;;;;;;15.93;76.47;100064.00;5045361;28;20036;-94
2021/08/14 00:59:57;;;;;;;42.13;13.90;;;;;;;15.94;76.56;100093.19;5042373;28;20179;-91
2021/08/14 01:02:24;;;;;;;24.03;12.37;;;;;;;16.23;76.63;100139.31;5039458;28;20497;-89
2021/08/14 01:04:51;;;;;;;36.05;13.57;;;;;;;15.81;76.69;100083.16;5063033;28;20377;-93
2021/08/14 01:07:20;;;;;;;26.75;13.30;;;;;;;15.83;76.23;100081.72;5046470;28;20135;-92
2021/08/14 01:09:46;;;;;;;33.10;13.88;;;;;;;16.16;76.45;100139.84;5079684;28;20047;-94
2021/08/14 01:12:15;;;;;;;27.90;13.07;;;;;;;15.87;76.31;100088.19;5089054;28;20098;-94
2021/08/14 01:14:46;;;;;;;22.23;13.00;;;;;;;15.69;76.67;100057.09;5059681;28;20041;-95
2021/08/14 01:17:15;;;;;;;34.97;14.32;;;;;;;16.06;76.83;100115.38;5042486;28;20417;-94
2021/08/14 01:19:48;;;;;;;34.13;14.05;;;;;;;15.47;76.69;100033.28;5054030;28;20518;-95
2021/08/14 01:22:15;;;;;;;30.98;13.77;;;;;;;15.74;76.98;100076.22;5027205;28;20094;-94
2021/08/14 01:24:43;;;;;;;;;;;;;;;16.09;77.18;100134.03;5026569;28;20059;-94
2021/08/14 01:27:09;;;;;;;28.58;12.57;;;;;;;15.65;77.80;100066.31;5041656;28;19921;-91
2021/08/14 01:29:36;;;;;;;27.38;13.45;;;;;;;15.90;77.49;100103.25;5029215;28;20075;-92
2021/08/14 01:32:05;;;;;;;36.42;15.20;;;;;;;15.61;77.78;100057.09;5022990;28;20040;-94
2021/08/14 01:34:36;;;;;;;30.88;14.93;;;;;;;15.85;78.27;100101.47;5034584;28;20045;-94
2021/08/14 01:37:04;;;;;;;38.00;16.50;;;;;;;15.64;78.62;100079.28;5019314;28;20136;-91
2021/08/14 01:39:30;;;;;;;35.63;16.98;;;;;;;15.72;78.99;100085.94;5036119;28;20092;-94
2021/08/14 01:41:58;;;;;;;39.83;17.53;;;;;;;15.35;79.00;100035.91;5039458;28;20041;-93
2021/08/14 01:44:26;;;;;;;41.97;18.55;;;;;;;15.89;79.24;100120.91;5010517;28;20442;-92
2021/08/14 01:46:53;;;;;;;52.28;20.67;;;;;;;15.70;79.66;100094.56;5020754;28;20042;-94
2021/08/14 01:49:20;;;;;;;44.47;20.42;;;;;;;15.79;79.35;100101.97;5005744;28;20045;-93
2021/08/14 01:51:47;;;;;;;55.85;24.17;;;;;;;15.84;79.45;100112.84;5055260;28;20057;-90
2021/08/14 01:54:14;;;;;;;59.60;25.67;;;;;;;15.79;79.21;100107.50;5020589;28;20067;-95
2021/08/14 01:56:44;;;;;;;49.25;24.20;;;;;;;15.60;79.70;100075.56;5021024;28;20089;-94
2021/08/14 01:59:11;;;;;;;47.80;22.48;;;;;;;15.93;79.29;100127.41;5020026;28;20498;-94
2021/08/14 02:01:37;;;;;;;;;;;;;;;16.06;79.07;100142.94;5006284;28;20115;-94
2021/08/14 02:04:03;;;;;;;43.50;20.07;;;;;;;15.43;78.91;100037.00;5022901;28;19917;-92
2021/08/14 02:06:30;;;;;;;42.20;21.85;;;;;;;16.02;78.97;100133.69;5018791;28;20359;-94
2021/08/14 02:08:56;;;;;;;44.70;20.60;;;;;;;15.76;78.14;100105.38;5045125;28;20056;-94
2021/08/14 02:11:27;;;;;;;;;;;;;;;16.01;78.46;100136.78;5013698;28;20049;-93
2021/08/14 02:13:59;;;;;;;57.28;20.38;;;;;;;15.89;78.66;100118.16;5020547;28;19921;-94
2021/08/14 02:16:25;;;;;;;41.65;20.35;;;;;;;15.64;78.78;100082.03;5004446;28;20048;-94
2021/08/14 02:18:52;;;;;;;43.00;20.20;;;;;;;15.79;79.17;100113.81;5012223;28;20052;-93
2021/08/14 02:21:18;;;;;;;46.50;20.05;;;;;;;15.44;78.99;100052.44;5030467;28;20037;-93
2021/08/14 02:23:45;;;;;;;38.75;19.42;;;;;;;15.79;79.11;100107.50;5016723;28;20045;-90
2021/08/14 02:26:11;;;;;;;43.75;19.00;;;;;;;15.90;79.17;100123.38;5007165;28;20057;-90
2021/08/14 02:28:39;;;;;;;46.20;18.15;;;;;;;15.94;79.13;100120.75;5017827;28;20184;-94
2021/08/14 02:31:06;;;;;;;52.63;18.47;;;;;;;15.76;79.04;100099.88;5007320;28;20506;-94
2021/08/14 02:33:32;;;;;;;48.05;20.50;;;;;;;15.99;79.18;100128.84;5038943;28;20498;-92
2021/08/14 02:36:03;;;;;;;70.20;26.38;;;;;;;15.80;79.13;100109.13;5020218;28;20097;-95
2021/08/14 02:38:32;;;;;;;84.97;33.72;;;;;;;16.13;78.96;100137.72;5019720;28;20033;-94
2021/08/14 02:40:58;;;;;;;83.90;34.03;;;;;;;15.93;78.79;100110.88;5020111;28;20552;-93
2021/08/14 02:43:25;;;;;;;86.78;35.10;;;;;;;16.04;78.62;100122.34;5045931;28;20040;-91
2021/08/14 02:45:51;;;;;;;102.05;39.47;;;;;;;16.09;78.58;100125.75;5050920;28;20117;-89
2021/08/14 02:48:18;;;;;;;130.77;45.92;;;;;;;16.15;78.31;100129.13;5048872;28;20032;-91
2021/08/14 02:50:46;;;;;;;139.43;47.73;;;;;;;15.93;78.26;100092.38;5059114;28;20036;-89
2021/08/14 02:53:13;;;;;;;128.60;42.97;;;;;;;15.71;78.23;100060.31;5076608;28;20012;-90
2021/08/14 02:55:46;;;;;;;101.07;36.35;;;;;;;15.88;78.25;100077.94;5051287;28;20136;-93
2021/08/14 02:58:13;;;;;;;89.28;33.30;;;;;;;15.78;78.40;100059.00;5041010;28;20418;-93
2021/08/14 03:00:39;;;;;;;95.72;33.28;;;;;;;16.21;78.16;100120.31;5051258;28;20040;-94
2021/08/14 03:03:06;;;;;;;;;;;;;;;16.42;78.24;100144.41;5066066;28;20502;-92
2021/08/14 03:05:32;;;;;;;70.43;26.58;;;;;;;16.40;78.11;100136.47;5056442;28;19921;-93
2021/08/14 03:07:58;;;;;;;69.10;26.30;;;;;;;16.26;78.18;100110.25;5050926;28;20442;-93
2021/08/14 03:10:25;;;;;;;77.97;29.92;;;;;;;16.41;78.04;100129.81;5039011;28;20418;-92
2021/08/14 03:12:53;;;;;;;69.10;27.67;;;;;;;16.42;78.16;100122.34;5036986;28;20037;-94
2021/08/14 03:15:19;;;;;;;65.88;28.08;;;;;;;16.36;78.48;100118.16;5034727;28;20041;-94
2021/08/14 03:17:46;;;;;;;;;;;;;;;16.61;78.28;100152.28;5038504;28;20044;-94
2021/08/14 03:20:14;;;;;;;59.17;21.45;;;;;;;16.47;78.54;100135.97;5018055;28;19994;-93
2021/08/14 03:22:41;;;;;;;37.97;19.73;;;;;;;16.50;78.24;100131.72;5034958;28;20059;-93
2021/08/14 03:25:07;;;;;;;50.67;20.50;;;;;;;16.42;78.08;100109.38;5002621;28;20801;-94
2021/08/14 03:27:36;;;;;;;45.10;20.42;;;;;;;16.56;78.18;100122.13;5037011;28;20049;-91
2021/08/14 03:30:04;;;;;;;49.85;21.17;;;;;;;16.58;78.38;100117.88;5054850;28;20106;-94
2021/08/14 03:32:30;;;;;;;44.95;20.20;;;;;;;16.59;78.07;100108.47;5025479;28;20029;-95
2021/08/14 03:34:55;;;;;;;43.65;19.70;;;;;;;16.65;78.04;100106.31;5023472;28;20037;-92
2021/08/14 03:37:22;;;;;;;35.67;17.93;;;;;;;16.84;77.65;100131.53;5038710;28;20041;-94
2021/08/14 03:39:47;;;;;;;44.20;18.90;;;;;;;16.66;77.75;100096.91;5023173;28;20109;-93
2021/08/14 03:42:13;;;;;;;49.78;19.20;;;;;;;16.79;77.70;100111.63;5021587;28;20075;-90
2021/08/14 03:44:40;;;;;;;38.00;18.92;;;;;;;16.78;77.76;100098.94;5038061;28;20049;-94
2021/08/14 03:47:09;;;;;;;42.45;19.88;;;;;;;17.06;77.73;100137.91;5041960;28;20174;-92
2021/08/14 03:49:35;;;;;;;38.00;19.27;;;;;;;16.94;77.87;100105.50;5035161;28;20049;-93
2021/08/14 03:52:02;;;;;;;;;;;;;;;17.38;77.55;100162.03;5037320;28;20041;-93
2021/08/14 03:54:30;;;;;;;34.78;18.50;;;;;;;16.85;77.27;100082.63;5005798;28;20067;-94
2021/08/14 03:56:56;;;;;;;37.28;16.27;;;;;;;17.10;77.44;100108.47;5038498;28;20506;-94
2021/08/14 03:59:22;;;;;;;34.58;15.82;;;;;;;16.94;77.19;100072.34;5022600;28;20120;-93
2021/08/14 04:01:48;;;;;;;41.85;16.60;;;;;;;17.30;76.62;100115.94;5041057;28;20490;-89
2021/08/14 04:04:14;;;;;;;40.08;17.90;;;;;;;17.37;77.02;100127.25;5036370;28;20046;-94
2021/08/14 04:06:41;;;;;;;37.42;16.95;;;;;;;17.42;75.46;100120.72;5005124;28;20048;-93
2021/08/14 04:09:07;;;;;;;29.73;16.38;;;;;;;17.61;75.91;100148.66;5034450;28;20140;-91
2021/08/14 04:11:34;;;;;;;34.78;16.10;;;;;;;17.86;75.82;100170.09;5020098;28;20045;-93
2021/08/14 04:14:00;;;;;;;36.42;16.33;;;;;;;17.56;75.30;100126.75;5028391;28;20489;-93
2021/08/14 04:16:29;;;;;;;37.05;16.38;;;;;;;17.64;74.99;100133.31;5019190;28;20482;-93
2021/08/14 04:18:55;;;;;;;37.70;14.85;;;;;;;18.04;74.11;100182.56;5024744;28;20133;-90
2021/08/14 04:21:23;;;;;;;27.98;15.55;;;;;;;17.88;73.73;100160.31;5010332;28;20538;-92
2021/08/14 04:23:49;;;;;;;30.73;15.17;;;;;;;17.99;73.95;100164.25;5035132;28;20564;-88
2021/08/14 04:26:15;;;;;;;29.63;15.40;;;;;;;18.01;73.25;100167.50;5034516;28;20339;-90
2021/08/14 04:28:41;;;;;;;24.43;14.27;;;;;;;18.12;73.32;100164.28;5024914;28;20037;-91
2021/08/14 04:31:07;;;;;;;26.42;15.00;;;;;;;18.17;72.75;100164.84;5034741;28;20120;-92
2021/08/14 04:33:33;;;;;;;28.67;15.53;;;;;;;18.11;72.92;100135.78;5018118;28;20084;-90
2021/08/14 04:36:04;;;;;;;25.73;14.48;;;;;;;17.89;72.01;100097.50;5030949;28;20077;-93
2021/08/14 04:38:30;;;;;;;31.58;13.80;;;;;;;18.25;72.18;100138.25;5018088;28;20034;-91
2021/08/14 04:40:56;;;;;;;30.63;13.80;;;;;;;18.21;71.26;100110.44;5017952;28;20069;-94
2021/08/14 04:43:24;;;;;;;32.22;14.02;;;;;;;18.37;71.20;100124.38;5031622;28;20079;-93
2021/08/14 04:45:50;;;;;;;28.10;13.75;;;;;;;18.53;70.87;100139.16;5001417;28;20087;-88
2021/08/14 04:48:16;;;;;;;29.10;14.55;;;;;;;18.57;71.23;100141.25;5023168;28;20033;-91
2021/08/14 04:50:42;;;;;;;22.00;13.53;;;;;;;18.65;69.99;100151.41;5020526;28;20506;-90
2021/08/14 04:53:10;;;;;;;31.88;12.80;;;;;;;18.65;69.53;100135.59;5035913;28;20052;-93
2021/08/14 04:55:36;;;;;;;29.20;12.20;;;;;;;18.74;69.20;100139.09;5018187;28;20536;-90
2021/08/14 04:58:03;;;;;;;33.70;13.07;;;;;;;18.83;69.34;100138.13;5023965;28;20041;-91
2021/08/14 05:00:30;;;;;;;36.43;12.80;;;;;;;19.19;69.13;100181.59;5050968;28;20041;-92
2021/08/14 05:02:59;;;;;;;24.67;11.32;;;;;;;19.01;68.12;100137.53;5053103;28;20029;-91
2021/08/14 05:05:25;;;;;;;31.80;13.00;;;;;;;18.86;67.92;100096.69;5037156;28;20041;-91
2021/08/14 05:07:51;;;;;;;31.08;12.45;;;;;;;19.25;67.88;100147.75;5032287;28;20037;-90
2021/08/14 05:10:17;;;;;;;26.17;12.63;;;;;;;19.38;68.33;100159.63;5020763;28;20141;-90
2021/08/14 05:12:43;;;;;;;28.65;12.07;;;;;;;19.62;68.49;100180.09;5038229;28;20044;-89
2021/08/14 05:15:10;;;;;;;25.67;12.57;;;;;;;19.31;67.72;100120.59;5037878;28;20045;-90
2021/08/14 05:17:38;;;;;;;40.38;12.65;;;;;;;19.57;67.88;100153.44;5055547;28;20341;-90
2021/08/14 05:20:06;;;;;;;36.70;12.27;;;;;;;19.62;66.57;100147.63;5056501;28;20449;-92
2021/08/14 05:22:38;;;;;;;54.70;12.43;;;;;;;19.49;66.73;100121.09;5021292;28;20037;-91
2021/08/14 05:25:05;;;;;;;35.42;12.05;;;;;;;19.85;66.53;100178.41;5030191;28;20037;-79
2021/08/14 05:27:33;;;;;;;55.35;12.82;;;;;;;19.93;65.29;100173.84;5069869;28;20064;-92
2021/08/14 05:29:59;;;;;;;31.20;11.85;;;;;;;19.81;65.17;100143.41;5039926;28;20044;-90
2021/08/14 05:32:25;;;;;;;24.93;10.80;;;;;;;19.92;64.59;100153.63;5027830;28;20383;-92
2021/08/14 05:34:54;;;;;;;31.75;11.68;;;;;;;19.75;64.95;100126.19;5054902;28;20178;-91
2021/08/14 05:37:20;;;;;;;22.60;11.93;;;;;;;20.01;65.17;100159.00;5048456;28;20047;-91
2021/08/14 05:39:47;;;;;;;33.33;11.80;;;;;;;19.87;65.19;100123.38;5080757;28;20519;-89
2021/08/14 05:42:16;;;;;;;31.50;12.20;;;;;;;19.70;65.94;100087.59;5053171;28;20528;-91
2021/08/14 05:44:44;;;;;;;46.20;12.35;;;;;;;20.39;64.20;100194.50;5058763;28;20358;-92
2021/08/14 05:47:10;;;;;;;39.30;11.70;;;;;;;20.00;64.65;100117.72;5063372;28;20158;-93
2021/08/14 05:49:36;;;;;;;46.78;12.73;;;;;;;20.08;64.10;100123.13;5049928;28;20097;-93
2021/08/14 05:52:05;;;;;;;42.27;11.90;;;;;;;20.04;64.88;100110.31;5055451;28;20032;-92
2021/08/14 05:54:34;;;;;;;22.08;10.55;;;;;;;20.38;64.09;100159.56;5038327;28;20518;-91
2021/08/14 05:57:02;;;;;;;38.95;10.98;;;;;;;20.27;63.27;100119.63;5052972;28;20060;-92
2021/08/14 05:59:32;;;;;;;;;;;;;;;20.72;62.67;100187.00;5043100;28;20043;-93
2021/08/14 06:02:02;;;;;;;29.45;10.02;;;;;;;20.36;62.31;100133.31;5048871;28;20014;-92
2021/08/14 06:04:28;;;;;;;52.88;11.40;;;;;;;20.55;62.20;100147.31;5059961;28;20036;-92
2021/08/14 06:06:54;;;;;;;;;;;;;;;20.75;60.77;100189.06;5036736;28;20082;-91
2021/08/14 06:09:20;;;;;;;47.35;9.48;;;;;;;20.62;60.97;100172.47;5039359;28;19921;-92
2021/08/14 06:11:48;;;;;;;28.80;9.02;;;;;;;20.59;60.00;100166.84;5042495;28;20153;-92
2021/08/14 06:14:14;;;;;;;23.90;10.00;;;;;;;20.48;60.55;100149.09;5058462;28;20071;-92
2021/08/14 06:16:44;;;;;;;29.73;10.13;;;;;;;20.46;60.54;100134.75;5086221;28;20046;-93
2021/08/14 06:19:11;;;;;;;29.63;9.02;;;;;;;20.57;60.48;100138.63;5038660;28;20590;-92
2021/08/14 06:21:37;;;;;;;;;;;;;;;21.03;61.85;100194.50;5061346;28;20048;-90
2021/08/14 06:24:06;;;;;;;24.45;8.35;;;;;;;20.69;61.88;100138.50;5041476;28;19973;-93
2021/08/14 06:26:33;;;;;;;18.23;7.68;;;;;;;20.57;60.98;100099.75;5062612;28;20048;-92
2021/08/14 06:28:59;;;;;;;13.57;7.15;;;;;;;20.59;60.94;100095.41;5051028;28;20463;-90
2021/08/14 06:31:25;;;;;;;13.80;6.70;;;;;;;21.27;60.81;100199.81;5063185;28;20040;-89
2021/08/14 06:33:51;;;;;;;16.08;7.43;;;;;;;20.97;60.17;100146.72;5050258;28;20039;-91
2021/08/14 06:36:19;;;;;;;19.40;6.60;;;;;;;20.89;58.24;100119.91;5036788;28;20037;-89
2021/08/14 06:38:47;;;;;;;19.20;6.43;;;;;;;21.19;56.52;100161.06;5052805;28;20040;-92
2021/08/14 06:41:15;;;;;;;13.35;5.18;;;;;;;21.04;55.63;100121.84;5056355;28;20027;-91
2021/08/14 06:43:49;;;;;;;8.88;5.38;;;;;;;21.03;56.09;100106.34;5039633;28;20040;-91
2021/08/14 06:46:19;;;;;;;16.45;6.18;;;;;;;21.47;57.33;100181.19;5043807;28;20040;-90
2021/08/14 06:48:45;;;;;;;12.50;5.65;;;;;;;21.20;56.29;100129.34;5082416;28;20063;-93
2021/08/14 06:51:15;;;;;;;12.05;6.43;;;;;;;21.02;57.82;100099.16;5066095;28;20028;-91
2021/08/14 06:53:43;;;;;;;14.30;6.43;;;;;;;21.05;57.01;100087.31;5063023;28;20093;-92
2021/08/14 06:56:10;;;;;;;17.70;6.88;;;;;;;21.65;59.67;100162.06;5059227;28;20036;-91
2021/08/14 06:58:36;;;;;;;15.38;6.97;;;;;;;21.52;58.67;100135.56;5065372;28;20040;-90
2021/08/14 07:01:03;;;;;;;18.88;7.63;;;;;;;21.61;57.80;100144.50;5040546;28;20448;-90
2021/08/14 07:03:29;;;;;;;24.93;7.90;;;;;;;21.65;58.24;100131.47;5045732;28;20031;-90
2021/08/14 07:05:55;;;;;;;39.08;7.90;;;;;;;22.14;56.31;100180.09;5072063;28;20046;-92
2021/08/14 07:08:21;;;;;;;34.07;7.27;;;;;;;22.08;56.17;100160.09;5062921;28;20540;-91
2021/08/14 07:10:51;;;;;;;41.15;8.25;;;;;;;22.12;56.57;100157.38;5083890;28;20051;-90
2021/08/14 07:13:17;;;;;;;27.33;7.15;;;;;;;22.08;55.08;100153.72;5041711;28;20505;-93
2021/08/14 07:15:45;;;;;;;19.65;7.13;;;;;;;21.87;57.64;100132.69;5048618;28;20039;-92
2021/08/14 07:18:13;;;;;;;17.13;7.22;;;;;;;22.09;57.25;100153.38;5052379;28;20040;-93
2021/08/14 07:20:39;;;;;;;18.40;6.75;;;;;;;21.88;54.48;100109.22;5051043;28;20104;-93
2021/08/14 07:23:05;;;;;;;18.33;7.65;;;;;;;21.88;54.71;100139.84;5050336;28;20039;-92
2021/08/14 07:25:35;;;;;;;21.00;8.15;;;;;;;21.95;55.84;100153.94;5066161;28;20032;-92
2021/08/14 07:28:03;;;;;;;22.40;7.97;;;;;;;22.21;57.01;100180.25;5048247;28;20041;-90
2021/08/14 07:30:29;;;;;;;24.75;7.25;;;;;;;22.05;54.48;100171.97;5063348;28;20033;-92
2021/08/14 07:32:55;;;;;;;11.88;6.32;;;;;;;21.88;54.46;100139.03;5051921;28;20027;-89
2021/08/14 07:35:22;;;;;;;16.58;6.45;;;;;;;21.94;52.20;100140.34;5071901;28;20027;-91
2021/08/14 07:37:50;;;;;;;19.60;6.20;;;;;;;22.10;51.82;100135.47;5104312;28;20075;-91
2021/08/14 07:40:19;;;;;;;17.00;7.32;;;;;;;22.57;52.55;100198.41;5041767;28;20047;-90
2021/08/14 07:42:47;;;;;;;15.98;6.50;;;;;;;22.28;52.17;100131.06;5055852;28;20041;-92
2021/08/14 07:45:19;;;;;;;12.57;5.85;;;;;;;22.59;52.35;100173.75;5065351;28;20040;-89
2021/08/14 07:47:48;;;;;;;26.50;7.45;;;;;;;22.73;50.50;100168.41;5067249;28;20155;-92
2021/08/14 07:50:22;;;;;;;15.45;5.97;;;;;;;22.42;49.63;100094.28;5087974;28;20046;-92
2021/08/14 07:52:50;;;;;;;14.98;6.47;;;;;;;22.43;49.12;100098.66;5048832;28;20043;-91
2021/08/14 07:55:16;;;;;;;14.18;5.90;;;;;;;22.50;49.53;100106.31;5047955;28;20476;-90
2021/08/14 07:57:46;;;;;;;17.92;6.20;;;;;;;22.89;48.04;100162.69;5089535;28;20039;-91
2021/08/14 08:00:17;;;;;;;20.42;6.63;;;;;;;23.17;47.44;100200.53;5039739;28;20056;-90
2021/08/14 08:02:46;;;;;;;16.77;7.05;;;;;;;22.69;48.66;100119.38;5045458;28;20074;-91
2021/08/14 08:05:13;;;;;;;16.08;6.25;;;;;;;22.93;47.94;100129.28;5070263;28;20100;-91
2021/08/14 08:07:44;;;;;;;15.50;7.18;;;;;;;23.27;50.66;100165.59;5054212;28;20094;-90
2021/08/14 08:10:17;;;;;;;17.85;7.45;;;;;;;23.28;50.09;100147.69;5062358;28;20041;-92
2021/08/14 08:12:45;;;;;;;14.88;6.28;;;;;;;23.26;47.88;100138.91;5044759;28;20063;-91
2021/08/14 08:15:14;;;;;;;;;;;;;;;23.78;49.58;100207.78;5077264;28;20043;-91
2021/08/14 08:17:41;;;;;;;13.00;6.88;;;;;;;23.40;47.57;100145.47;5076680;28;19924;-92
2021/08/14 08:20:12;;;;;;;18.45;6.43;;;;;;;23.23;46.87;100120.13;5065138;28;20031;-90
2021/08/14 08:22:39;;;;;;;16.15;8.35;;;;;;;23.44;48.10;100146.31;5030326;28;20036;-91
2021/08/14 08:25:10;;;;;;;18.55;8.38;;;;;;;23.52;49.25;100133.25;5097196;28;20093;-90
2021/08/14 08:27:45;;;;;;;15.77;7.47;;;;;;;23.78;47.29;100156.72;5047147;28;20044;-90
2021/08/14 08:30:15;;;;;;;17.42;7.85;;;;;;;23.47;47.85;100099.28;5054184;28;20094;-89
2021/08/14 08:32:44;;;;;;;12.13;6.68;;;;;;;23.91;48.22;100180.41;5056645;28;20428;-92
2021/08/14 08:35:13;;;;;;;19.40;7.88;;;;;;;23.52;49.44;100113.72;5024758;28;20033;-92
2021/08/14 08:37:42;;;;;;;26.00;7.35;;;;;;;23.75;46.50;100140.72;5049617;28;20055;-92
2021/08/14 08:40:18;;;;;;;13.65;6.97;;;;;;;23.79;46.85;100156.31;5050631;28;20086;-93
2021/08/14 08:42:46;;;;;;;12.82;6.00;;;;;;;23.86;46.06;100173.16;5059392;28;20036;-90
2021/08/14 08:45:12;;;;;;;20.42;7.60;;;;;;;24.03;46.76;100190.47;5057482;28;20043;-84
2021/08/14 08:47:44;;;;;;;17.42;6.65;;;;;;;23.67;46.31;100135.03;5091322;28;20043;-85
2021/08/14 08:50:13;;;;;;;31.42;7.72;;;;;;;23.81;46.85;100158.75;5075244;28;20036;-84
2021/08/14 08:52:43;;;;;;;18.00;6.60;;;;;;;23.96;45.36;100188.41;5093182;28;20556;-85
2021/08/14 08:55:13;;;;;;;25.63;7.30;;;;;;;24.11;50.12;100206.16;5093556;28;20036;-83
2021/08/14 08:57:39;;;;;;;14.57;6.55;;;;;;;24.07;48.84;100180.97;5092470;28;20043;-83
2021/08/14 09:00:06;;;;;;;13.30;6.60;;;;;;;24.69;51.36;100182.34;5075475;28;20127;-84
2021/08/14 09:02:36;;;;;;;13.90;6.70;;;;;;;24.84;47.05;100184.84;5092133;28;20044;-84
2021/08/14 09:05:15;;;;;;;18.13;6.70;;;;;;;25.14;46.51;100181.06;5058772;28;20041;-85
2021/08/14 09:07:44;;;;;;;26.52;7.60;;;;;;;25.02;44.77;100184.97;5074706;28;20468;-85
2021/08/14 09:10:12;;;;;;;17.58;7.40;;;;;;;24.60;44.82;100168.66;5090377;28;20032;-85
2021/08/14 09:12:41;;;;;;;16.50;6.93;;;;;;;24.48;46.60;100158.59;5097185;28;20035;-84
2021/08/14 09:15:19;;;;;;;14.30;6.70;;;;;;;24.49;47.83;100174.19;5098739;28;20086;-84
2021/08/14 09:17:46;;;;;;;13.98;7.28;;;;;;;24.37;46.90;100158.50;5065059;28;20670;-83
2021/08/14 09:20:15;;;;;;;18.63;7.25;;;;;;;24.37;46.22;100171.63;5089930;28;20059;-80
2021/08/14 09:23:11;;;;;;;11.55;6.80;;;;;;;24.42;45.35;100171.34;5093747;28;20091;-80
2021/08/14 09:25:48;;;;;;;18.42;7.00;;;;;;;24.47;46.73;100168.19;5093154;28;20044;-80
2021/08/14 09:28:17;;;;;;;21.98;7.40;;;;;;;24.66;44.49;100166.31;5088461;28;20040;-80
2021/08/14 09:30:55;;;;;;;20.45;7.40;;;;;;;24.89;46.97;100155.69;5081318;28;20040;-80
2021/08/14 09:33:26;;;;;;;15.77;6.95;;;;;;;25.09;48.55;100159.03;5093258;28;20036;-80
2021/08/14 09:36:07;;;;;;;16.50;7.20;;;;;;;25.19;47.39;100143.50;5087242;28;20130;-84
2021/08/14 09:38:45;;;;;;;17.42;7.28;;;;;;;25.32;44.67;100161.56;5099396;28;20036;-83
2021/08/14 09:41:15;;;;;;;18.42;7.05;;;;;;;24.96;43.83;100152.94;5099782;28;20031;-82
2021/08/14 09:43:42;;;;;;;15.02;6.78;;;;;;;24.84;43.98;100170.06;5100471;28;20198;-84
2021/08/14 09:46:09;;;;;;;17.95;7.25;;;;;;;24.79;44.12;100162.81;5111238;28;20038;-83
2021/08/14 09:48:36;;;;;;;21.40;7.13;;;;;;;24.81;43.03;100138.09;5111247;28;20071;-84
2021/08/14 09:51:03;;;;;;;28.70;8.32;;;;;;;24.95;46.81;100139.38;5103142;28;20036;-82
2021/08/14 09:53:30;;;;;;;14.40;7.15;;;;;;;25.36;43.82;100153.19;5091561;28;20047;-81
2021/08/14 09:56:08;;;;;;;16.27;7.30;;;;;;;25.29;42.23;100137.16;5089858;28;20063;-82
2021/08/14 09:58:38;;;;;;;18.33;8.90;;;;;;;25.39;40.34;100135.63;5076247;28;20066;-85
2021/08/14 10:01:07;;;;;;;15.93;9.25;;;;;;;25.65;44.91;100148.50;5098361;28;20040;-82
2021/08/14 10:03:35;;;;;;;18.08;8.68;;;;;;;25.88;42.73;100143.41;5095842;28;20532;-83
2021/08/14 10:06:04;;;;;;;15.75;8.57;;;;;;;25.86;39.41;100142.19;5089690;28;20075;-82
2021/08/14 10:08:31;;;;;;;14.50;7.43;;;;;;;25.92;40.08;100143.41;5091845;28;20036;-82
2021/08/14 10:10:58;;;;;;;13.68;7.20;;;;;;;26.05;41.55;100141.81;5091928;28;20528;-82
2021/08/14 10:13:25;;;;;;;22.00;10.82;;;;;;;26.30;44.68;100144.66;5095648;28;20438;-78
2021/08/14 10:15:50;;;;;;;;;;;;;;;26.63;41.80;100146.28;5087997;28;20554;-82
2021/08/14 10:18:18;;;;;;;18.90;7.97;;;;;;;26.75;42.01;100133.84;5074452;28;19924;-82
2021/08/14 10:20:45;;;;;;;31.23;12.18;;;;;;;26.85;42.47;100121.00;5066238;28;20035;-79
2021/08/14 10:23:18;;;;;;;50.00;20.10;;;;;;;26.84;42.35;100120.19;5092611;28;20024;-78
2021/08/14 10:25:48;;;;;;;29.48;14.50;;;;;;;27.07;38.56;100132.97;5092122;28;20044;-84
2021/08/14 10:28:15;;;;;;;39.38;16.45;;;;;;;27.02;41.20;100125.78;5086506;28;20077;-79
2021/08/14 10:30:46;;;;;;;39.83;15.00;;;;;;;27.04;42.04;100125.38;5090813;28;20080;-81
2021/08/14 10:33:27;;;;;;;19.05;8.15;;;;;;;27.03;36.39;100126.59;5062544;28;20075;-79
2021/08/14 10:35:55;;;;;;;27.40;9.65;;;;;;;27.02;38.23;100122.16;5092308;28;20039;-82
2021/08/14 10:38:44;;;;;;;29.70;12.55;;;;;;;26.92;36.81;100110.56;5091119;28;20036;-78
2021/08/14 10:41:12;;;;;;;29.95;12.80;;;;;;;26.97;39.92;100128.19;5087227;28;20047;-83
2021/08/14 10:43:54;;;;;;;18.80;10.38;;;;;;;26.65;38.99;100131.84;5072108;28;20067;-86
2021/08/14 10:46:41;;;;;;;19.98;8.50;;;;;;;26.47;38.88;100129.03;5083740;28;20328;-84
2021/08/14 10:49:32;;;;;;;24.48;11.32;;;;;;;26.28;39.34;100126.63;5071769;28;20571;-78
2021/08/14 10:52:00;;;;;;;25.50;10.73;;;;;;;26.14;39.38;100124.63;5084303;28;20963;-82
2021/08/14 10:54:35;;;;;;;23.83;10.13;;;;;;;26.17;39.07;100126.63;5057231;28;20067;-80
2021/08/14 10:57:08;;;;;;;14.75;6.85;;;;;;;26.09;38.72;100119.41;5070162;28;20574;-80
2021/08/14 10:59:35;;;;;;;21.15;7.63;;;;;;;26.08;37.68;100127.03;5069165;28;20127;-81
2021/08/14 11:02:21;;;;;;;19.30;8.70;;;;;;;26.36;41.44;100117.84;5062931;28;20139;-86
2021/08/14 11:04:58;;;;;;;21.92;7.82;;;;;;;26.47;40.53;100113.03;5029918;28;20055;-85
2021/08/14 11:07:25;;;;;;;18.38;8.52;;;;;;;26.66;40.63;100113.84;5069276;28;20056;-84
2021/08/14 11:09:54;;;;;;;17.93;8.80;;;;;;;26.87;41.11;100113.00;5069348;28;20139;-84
2021/08/14 11:12:50;;;;;;;22.98;9.57;;;;;;;27.07;40.25;100102.09;5068816;28;20298;-80
2021/08/14 11:15:22;;;;;;;17.08;8.38;;;;;;;26.92;39.59;100092.91;5069058;28;20052;-84
2021/08/14 11:18:00;;;;;;;15.93;7.88;;;;;;;27.15;39.65;100098.09;5068335;28;20157;-82
2021/08/14 11:20:30;;;;;;;21.85;7.38;;;;;;;27.26;38.72;100101.66;5087406;28;20036;-84
2021/08/14 11:22:59;;;;;;;18.92;8.45;;;;;;;27.43;39.09;100090.75;5087705;28;20382;-77